Time;durP1;ratioP1;P1;durP2;ratioP2;P2;SDS_P1;SDS_P2;PMS_P1;PMS_P2;Temp;Humidity;BMP_temperature;BMP_pressure;BME280_temperature;BME280_humidity;BME280_pressure;Samples;Min_cycle;Max_cycle;Signal;HPM_P1;HPM_P2
2023/12/18 00:00:48;;;;;;;9.40;2.90;;;;;;;6.51;100.00;100281.38;109041;1259;71033;-64
2023/12/18 00:03:43;;;;;;;8.60;2.60;;;;;;;6.50;100.00;100288.31;109026;1259;58023;-64
2023/12/18 00:06:31;;;;;;;7.20;2.70;;;;;;;6.50;100.00;100277.41;109025;1259;60293;-65
2023/12/18 00:09:21;;;;;;;8.80;2.90;;;;;;;6.50;100.00;100279.16;109082;1259;73781;-66
2023/12/18 00:12:09;;;;;;;9.90;3.00;;;;;;;6.51;100.00;100282.77;109071;1259;67699;-65
2023/12/18 00:14:57;;;;;;;8.20;3.10;;;;;;;6.51;100.00;100280.31;108843;1260;70451;-66
2023/12/18 00:17:45;;;;;;;9.40;3.30;;;;;;;6.50;100.00;100282.48;109015;1258;58302;-65
2023/12/18 00:20:33;;;;;;;8.80;2.70;;;;;;;6.50;100.00;100284.60;109012;1259;59063;-64
2023/12/18 00:23:21;;;;;;;9.30;3.30;;;;;;;6.49;100.00;100284.31;109029;1259;71795;-64
2023/12/18 00:26:08;;;;;;;7.80;2.90;;;;;;;6.48;100.00;100285.03;109077;1259;66996;-65
2023/12/18 00:28:56;;;;;;;9.50;3.40;;;;;;;6.49;100.00;100283.42;109062;1259;73929;-64
2023/12/18 00:31:44;;;;;;;10.90;3.30;;;;;;;6.46;100.00;100278.80;109037;1259;59912;-67
2023/12/18 00:34:32;;;;;;;9.50;2.80;;;;;;;6.44;100.00;100279.96;109037;1259;59157;-65
2023/12/18 00:37:20;;;;;;;9.90;3.00;;;;;;;6.45;100.00;100285.04;109070;1259;72770;-65
2023/12/18 00:40:08;;;;;;;10.50;3.00;;;;;;;6.42;100.00;100274.11;109075;1259;66047;-65
2023/12/18 00:42:56;;;;;;;7.50;2.60;;;;;;;6.45;100.00;100279.77;109079;1259;73493;-65
2023/12/18 00:45:43;;;;;;;8.00;3.00;;;;;;;6.45;100.00;100281.70;109068;1259;59331;-64
2023/12/18 00:48:31;;;;;;;7.90;3.10;;;;;;;6.44;100.00;100279.77;109041;1259;61096;-66
2023/12/18 00:51:19;;;;;;;7.80;2.50;;;;;;;6.42;100.00;100270.95;109104;1259;71819;-65
2023/12/18 00:54:08;;;;;;;8.40;2.50;;;;;;;6.44;100.00;100275.21;109058;1259;65590;-66
2023/12/18 00:56:55;;;;;;;8.00;2.20;;;;;;;6.43;100.00;100275.63;108975;1259;72843;-65
2023/12/18 00:59:43;;;;;;;8.30;2.60;;;;;;;6.42;100.00;100269.36;109093;1258;58284;-65
2023/12/18 01:02:31;;;;;;;6.80;2.40;;;;;;;6.40;100.00;100264.54;109113;1258;61380;-66
2023/12/18 01:05:19;;;;;;;6.60;2.40;;;;;;;6.43;100.00;100277.58;109072;1259;72837;-66
2023/12/18 01:08:08;;;;;;;7.80;2.30;;;;;;;6.42;100.00;100275.16;109073;1259;67068;-65
2023/12/18 01:10:56;;;;;;;7.00;2.30;;;;;;;6.41;100.00;100269.77;108989;1259;73331;-66
2023/12/18 01:13:44;;;;;;;7.80;2.00;;;;;;;6.41;100.00;100265.67;109067;1259;59597;-65
2023/12/18 01:16:32;;;;;;;6.70;2.10;;;;;;;6.42;100.00;100266.88;109018;1259;61345;-65
2023/12/18 01:19:22;;;;;;;8.10;2.00;;;;;;;6.42;100.00;100259.13;109054;1259;71521;-65
2023/12/18 01:22:10;;;;;;;6.70;2.00;;;;;;;6.41;100.00;100258.29;109052;1259;67858;-65
2023/12/18 01:24:58;;;;;;;7.60;2.30;;;;;;;6.40;100.00;100254.83;109001;1259;71491;-65
2023/12/18 01:27:46;;;;;;;6.80;1.80;;;;;;;6.38;100.00;100259.52;108929;1262;59336;-66
2023/12/18 01:30:34;;;;;;;6.40;1.80;;;;;;;6.38;100.00;100257.21;109070;1259;58882;-65
2023/12/18 01:33:22;;;;;;;5.40;1.80;;;;;;;6.36;100.00;100266.86;109057;1259;73057;-66
2023/12/18 01:36:10;;;;;;;4.50;1.20;;;;;;;6.35;100.00;100251.09;109080;1259;65398;-66
2023/12/18 01:38:58;;;;;;;6.30;1.70;;;;;;;6.34;100.00;100255.37;109038;1259;71851;-66
2023/12/18 01:41:45;;;;;;;5.80;1.60;;;;;;;6.33;100.00;100252.27;109049;1259;58601;-65
2023/12/18 01:44:33;;;;;;;5.40;1.20;;;;;;;6.32;100.00;100247.03;109031;1259;60387;-66
2023/12/18 01:47:21;;;;;;;4.80;1.40;;;;;;;6.30;100.00;100247.66;108967;1259;72866;-67
2023/12/18 01:50:10;;;;;;;5.70;1.70;;;;;;;6.29;100.00;100251.04;108979;1260;67653;-66
2023/12/18 01:52:58;;;;;;;6.20;1.40;;;;;;;6.29;100.00;100248.39;108949;1259;72748;-67
2023/12/18 01:55:46;;;;;;;7.70;1.20;;;;;;;6.29;100.00;100251.41;109084;1259;58011;-66
2023/12/18 01:58:34;;;;;;;5.50;1.20;;;;;;;6.29;100.00;100254.57;107536;1259;1002673;-66
2023/12/18 02:01:22;;;;;;;7.10;1.60;;;;;;;6.27;100.00;100250.27;109025;1260;71647;-68
2023/12/18 02:04:10;;;;;;;5.10;1.30;;;;;;;6.25;100.00;100251.60;108976;1260;66689;-66
2023/12/18 02:07:01;;;;;;;6.30;1.60;;;;;;;6.24;100.00;100246.41;109097;1259;72391;-66
2023/12/18 02:09:50;;;;;;;6.20;1.60;;;;;;;6.28;100.00;100260.80;108942;1260;59248;-63
2023/12/18 02:12:37;;;;;;;5.00;1.40;;;;;;;6.28;100.00;100251.48;109023;1260;60315;-65
2023/12/18 02:15:25;;;;;;;10.50;3.30;;;;;;;6.28;100.00;100260.29;109062;1259;72655;-65
2023/12/18 02:18:13;;;;;;;7.40;2.30;;;;;;;6.26;100.00;100252.98;109063;1260;68771;-64
2023/12/18 02:21:02;;;;;;;10.90;3.10;;;;;;;6.25;100.00;100248.83;109011;1259;73394;-64
2023/12/18 02:23:51;;;;;;;5.70;1.50;;;;;;;6.24;100.00;100244.84;109060;1259;58273;-65
2023/12/18 02:26:39;;;;;;;8.40;2.60;;;;;;;6.22;100.00;100246.89;109102;1259;61441;-64
2023/12/18 02:29:26;;;;;;;10.70;3.50;;;;;;;6.21;100.00;100244.27;109066;1259;73828;-65
2023/12/18 02:32:14;;;;;;;7.00;1.80;;;;;;;6.20;100.00;100248.42;109052;1260;68299;-65
2023/12/18 02:35:02;;;;;;;11.30;3.30;;;;;;;6.20;100.00;100244.19;109056;1259;73389;-65
2023/12/18 02:37:50;;;;;;;6.90;2.30;;;;;;;6.20;100.00;100240.30;109024;1259;59563;-65
2023/12/18 02:40:40;;;;;;;6.10;1.70;;;;;;;6.20;100.00;100246.80;109035;1259;59538;-65
2023/12/18 02:43:28;;;;;;;6.30;1.70;;;;;;;6.21;100.00;100250.79;109019;1259;72825;-64
2023/12/18 02:46:15;;;;;;;6.30;1.60;;;;;;;6.20;100.00;100250.52;109067;1259;67637;-65
2023/12/18 02:49:03;;;;;;;6.80;1.70;;;;;;;6.20;100.00;100250.33;108978;1260;72339;-65
2023/12/18 02:51:51;;;;;;;5.00;1.50;;;;;;;6.19;100.00;100241.38;109038;1259;57977;-65
2023/12/18 02:54:39;;;;;;;6.00;1.40;;;;;;;6.20;100.00;100242.06;109026;1259;61621;-66
2023/12/18 02:57:27;;;;;;;5.00;1.40;;;;;;;6.19;100.00;100237.17;109080;1259;72511;-66
2023/12/18 03:00:25;;;;;;;6.20;1.40;;;;;;;6.20;100.00;100237.83;109073;1259;68635;-65
2023/12/18 03:03:13;;;;;;;6.30;1.30;;;;;;;6.19;100.00;100237.89;109101;1259;73895;-65
2023/12/18 03:06:01;;;;;;;5.70;1.40;;;;;;;6.20;100.00;100247.52;109057;1259;57981;-65
2023/12/18 03:08:49;;;;;;;5.20;1.40;;;;;;;6.20;100.00;100242.05;109075;1259;60324;-65
2023/12/18 03:11:36;;;;;;;6.10;1.40;;;;;;;6.19;100.00;100239.64;109076;1260;72146;-66
2023/12/18 03:14:24;;;;;;;5.00;1.40;;;;;;;6.16;100.00;100228.34;109030;1259;68068;-65
2023/12/18 03:17:11;;;;;;;4.70;1.40;;;;;;;6.19;100.00;100233.33;108988;1259;72760;-65
2023/12/18 03:19:59;;;;;;;6.20;1.30;;;;;;;6.19;100.00;100234.19;109043;1259;59705;-67
2023/12/18 03:22:47;;;;;;;4.50;1.10;;;;;;;6.19;100.00;100238.42;109034;1259;59126;-66
2023/12/18 03:25:35;;;;;;;4.20;1.00;;;;;;;6.17;100.00;100248.02;108891;1259;71852;-65
2023/12/18 03:28:22;;;;;;;4.60;1.40;;;;;;;6.16;100.00;100238.72;109045;1259;68867;-66
2023/12/18 03:31:10;;;;;;;5.10;1.10;;;;;;;6.16;100.00;100231.17;109053;1259;71478;-67
2023/12/18 03:33:58;;;;;;;4.70;1.50;;;;;;;6.16;100.00;100236.27;109004;1260;59206;-64
2023/12/18 03:36:46;;;;;;;4.50;0.90;;;;;;;6.17;100.00;100230.62;109039;1260;59482;-65
2023/12/18 03:39:34;;;;;;;4.60;1.00;;;;;;;6.16;100.00;100231.15;109079;1259;72783;-63
2023/12/18 03:42:22;;;;;;;4.10;1.10;;;;;;;6.15;100.00;100235.98;108298;1259;1002646;-63
2023/12/18 03:45:10;;;;;;;4.70;1.10;;;;;;;6.15;100.00;100229.30;109071;1259;72683;-65
2023/12/18 03:47:58;;;;;;;3.70;0.90;;;;;;;6.13;100.00;100222.88;107545;1259;1002306;-64
2023/12/18 03:50:46;;;;;;;4.00;1.00;;;;;;;6.13;100.00;100227.98;109069;1259;60334;-65
2023/12/18 03:53:34;;;;;;;3.70;1.00;;;;;;;6.13;100.00;100230.65;109034;1259;72873;-66
2023/12/18 03:56:22;;;;;;;4.10;1.10;;;;;;;6.13;100.00;100232.89;109048;1259;67902;-64
2023/12/18 03:59:10;;;;;;;3.60;0.90;;;;;;;6.13;100.00;100235.58;109048;1258;72611;-65
2023/12/18 04:01:58;;;;;;;4.50;1.20;;;;;;;6.13;100.00;100227.96;108908;1260;57362;-67
2023/12/18 04:04:45;;;;;;;3.90;1.00;;;;;;;6.14;100.00;100229.33;109054;1259;61074;-64
2023/12/18 04:07:33;;;;;;;3.60;0.80;;;;;;;6.14;100.00;100225.66;108890;1259;181350;-65
2023/12/18 04:10:21;;;;;;;4.00;1.20;;;;;;;6.14;100.00;100232.70;109036;1260;67848;-67
2023/12/18 04:13:09;;;;;;;4.20;1.20;;;;;;;6.14;100.00;100228.30;108870;1260;72708;-65
2023/12/18 04:15:57;;;;;;;3.90;1.10;;;;;;;6.14;100.00;100221.02;109032;1259;59320;-66
2023/12/18 04:18:49;;;;;;;4.80;1.40;;;;;;;6.14;100.00;100223.33;109065;1260;61418;-64
2023/12/18 04:21:37;;;;;;;4.50;1.10;;;;;;;6.16;100.00;100219.56;109027;1259;74273;-66
2023/12/18 04:24:25;;;;;;;3.70;0.90;;;;;;;6.15;100.00;100224.14;109080;1259;68095;-67
2023/12/18 04:27:13;;;;;;;4.40;1.20;;;;;;;6.17;100.00;100223.23;109053;1259;73326;-65
2023/12/18 04:30:01;;;;;;;4.50;1.30;;;;;;;6.17;100.00;100221.80;108958;1258;59639;-65
2023/12/18 04:32:49;;;;;;;3.70;1.00;;;;;;;6.15;100.00;100221.92;109038;1260;60455;-65
2023/12/18 04:35:37;;;;;;;4.20;1.00;;;;;;;6.17;100.00;100236.94;109040;1259;74437;-65
2023/12/18 04:38:24;;;;;;;4.40;1.00;;;;;;;6.19;100.00;100230.33;109057;1259;67806;-64
2023/12/18 04:41:20;;;;;;;4.00;1.10;;;;;;;6.18;100.00;100229.30;109018;1259;72811;-65
2023/12/18 04:44:08;;;;;;;4.00;1.00;;;;;;;6.19;100.00;100239.48;108952;1259;60378;-64
2023/12/18 04:46:56;;;;;;;3.80;0.90;;;;;;;6.19;100.00;100242.64;109003;1258;60590;-63
2023/12/18 04:49:44;;;;;;;3.80;1.10;;;;;;;6.19;100.00;100244.20;109061;1260;73861;-63
2023/12/18 04:52:32;;;;;;;3.90;1.00;;;;;;;6.20;100.00;100239.08;109044;1259;68831;-63
2023/12/18 04:55:20;;;;;;;3.30;0.90;;;;;;;6.20;100.00;100244.35;109017;1259;73513;-64
2023/12/18 04:58:08;;;;;;;4.40;1.10;;;;;;;6.17;100.00;100239.04;109044;1259;58268;-65
2023/12/18 05:00:57;;;;;;;3.80;1.00;;;;;;;6.21;100.00;100238.80;108951;1259;58871;-66
2023/12/18 05:03:46;;;;;;;3.80;1.00;;;;;;;6.21;100.00;100231.94;108965;1259;74360;-65
2023/12/18 05:06:33;;;;;;;4.40;1.20;;;;;;;6.22;100.00;100231.20;108939;1260;67745;-67
2023/12/18 05:09:21;;;;;;;3.10;0.90;;;;;;;6.22;100.00;100226.41;109040;1259;73716;-66
2023/12/18 05:12:09;;;;;;;3.70;0.90;;;;;;;6.23;100.00;100224.63;108958;1259;57977;-65
2023/12/18 05:15:03;;;;;;;3.80;1.00;;;;;;;6.23;100.00;100226.03;108964;1260;59244;-64
2023/12/18 05:17:52;;;;;;;3.90;1.10;;;;;;;6.22;100.00;100225.00;109037;1259;72462;-64
2023/12/18 05:20:40;;;;;;;3.60;1.00;;;;;;;6.24;100.00;100228.79;109070;1259;67193;-63
2023/12/18 05:23:28;;;;;;;3.70;0.90;;;;;;;6.25;100.00;100220.44;109005;1259;73491;-63
2023/12/18 05:26:16;;;;;;;4.70;1.30;;;;;;;6.26;100.00;100223.39;108985;1259;59872;-65
2023/12/18 05:29:04;;;;;;;4.20;1.10;;;;;;;6.27;100.00;100222.10;109019;1259;59404;-64
2023/12/18 05:31:52;;;;;;;3.50;0.90;;;;;;;6.27;100.00;100221.04;108974;1259;73756;-64
2023/12/18 05:34:39;;;;;;;4.30;1.00;;;;;;;6.27;100.00;100217.48;109123;1256;66718;-62
2023/12/18 05:37:28;;;;;;;4.20;1.00;;;;;;;6.28;100.00;100213.38;109147;1257;71412;-67
2023/12/18 05:40:16;;;;;;;4.40;1.20;;;;;;;6.27;100.00;100218.03;109162;1257;58261;-65
2023/12/18 05:43:05;;;;;;;3.80;1.10;;;;;;;6.28;100.00;100213.05;109127;1257;59003;-64
2023/12/18 05:45:53;;;;;;;4.90;1.10;;;;;;;6.28;100.00;100215.88;108926;1257;72722;-66
2023/12/18 05:48:41;;;;;;;4.30;1.00;;;;;;;6.27;100.00;100218.93;109066;1260;67685;-63
2023/12/18 05:51:29;;;;;;;4.90;1.20;;;;;;;6.27;100.00;100214.34;109009;1258;73877;-65
2023/12/18 05:54:17;;;;;;;4.50;1.30;;;;;;;6.26;100.00;100211.77;108990;1260;60281;-64
2023/12/18 05:57:04;;;;;;;4.30;1.10;;;;;;;6.28;100.00;100215.65;108926;1259;59996;-65
2023/12/18 05:59:52;;;;;;;5.50;1.20;;;;;;;6.28;100.00;100213.73;109017;1260;73783;-63
2023/12/18 06:02:40;;;;;;;5.00;1.30;;;;;;;6.29;100.00;100203.28;108965;1258;67906;-65
2023/12/18 06:05:28;;;;;;;5.30;1.50;;;;;;;6.29;100.00;100202.41;108854;1259;71720;-66
2023/12/18 06:08:16;;;;;;;4.70;1.20;;;;;;;6.32;100.00;100212.14;108925;1260;59440;-66
2023/12/18 06:11:04;;;;;;;4.50;1.10;;;;;;;6.32;100.00;100215.84;109034;1262;60303;-64
2023/12/18 06:13:51;;;;;;;4.20;1.10;;;;;;;6.33;100.00;100207.86;108922;1260;72777;-67
2023/12/18 06:16:39;;;;;;;4.60;1.10;;;;;;;6.34;100.00;100210.97;109039;1259;66716;-63
2023/12/18 06:19:27;;;;;;;3.50;1.00;;;;;;;6.33;100.00;100215.06;108941;1261;73587;-65
2023/12/18 06:22:15;;;;;;;4.80;1.10;;;;;;;6.33;100.00;100215.95;108988;1260;58058;-66
2023/12/18 06:25:03;;;;;;;4.50;1.10;;;;;;;6.33;100.00;100235.84;108930;1259;58992;-65
2023/12/18 06:27:51;;;;;;;4.40;1.00;;;;;;;6.34;100.00;100236.88;108881;1259;71807;-63
2023/12/18 06:30:39;;;;;;;4.00;1.10;;;;;;;6.34;100.00;100231.24;109007;1259;68753;-64
2023/12/18 06:33:27;;;;;;;4.40;1.00;;;;;;;6.33;100.00;100239.89;109010;1259;70564;-65
2023/12/18 06:36:19;;;;;;;4.60;1.20;;;;;;;6.35;100.00;100238.59;109010;1259;60527;-65
2023/12/18 06:39:07;;;;;;;3.90;1.00;;;;;;;6.35;100.00;100241.73;109027;1259;59026;-65
2023/12/18 06:41:55;;;;;;;4.00;1.00;;;;;;;6.34;100.00;100231.73;109018;1260;72773;-64
2023/12/18 06:44:43;;;;;;;4.80;1.20;;;;;;;6.36;100.00;100244.16;109062;1260;68772;-63
2023/12/18 06:47:31;;;;;;;4.30;1.30;;;;;;;6.32;100.00;100237.14;108848;1259;71152;-65
2023/12/18 06:50:19;;;;;;;4.60;1.30;;;;;;;6.36;100.00;100247.12;109006;1259;59122;-64
2023/12/18 06:53:07;;;;;;;4.50;1.20;;;;;;;6.36;100.00;100249.78;109018;1260;61056;-63
2023/12/18 06:55:55;;;;;;;4.20;1.10;;;;;;;6.36;100.00;100254.70;109084;1259;73897;-64
2023/12/18 06:58:43;;;;;;;4.00;1.00;;;;;;;6.36;100.00;100265.30;108958;1258;65437;-64
2023/12/18 07:01:30;;;;;;;4.20;1.10;;;;;;;6.35;100.00;100258.84;109013;1257;73808;-65
2023/12/18 07:04:18;;;;;;;5.00;1.30;;;;;;;6.39;100.00;100259.11;109004;1259;58669;-65
2023/12/18 07:07:08;;;;;;;4.60;1.30;;;;;;;6.41;100.00;100262.36;109022;1260;59020;-65
2023/12/18 07:09:55;;;;;;;4.60;1.30;;;;;;;6.42;100.00;100267.23;109095;1259;73948;-64
2023/12/18 07:12:43;;;;;;;5.30;1.30;;;;;;;6.44;100.00;100269.26;109108;1260;66741;-65
2023/12/18 07:15:31;;;;;;;5.00;1.60;;;;;;;6.46;100.00;100271.77;108925;1258;72774;-64
2023/12/18 07:18:19;;;;;;;5.30;1.40;;;;;;;6.48;100.00;100269.54;108240;1257;1002941;-66
2023/12/18 07:21:07;;;;;;;5.20;1.70;;;;;;;6.50;100.00;100272.29;109019;1258;61305;-64
2023/12/18 07:23:55;;;;;;;5.60;1.20;;;;;;;6.50;100.00;100279.30;109019;1258;71736;-67
2023/12/18 07:26:43;;;;;;;4.50;1.30;;;;;;;6.51;100.00;100282.98;109006;1256;66293;-63
2023/12/18 07:29:31;;;;;;;5.70;1.40;;;;;;;6.51;100.00;100283.50;109028;1257;72708;-65
2023/12/18 07:32:19;;;;;;;4.60;1.20;;;;;;;6.50;100.00;100282.80;109040;1256;59704;-65
2023/12/18 07:35:07;;;;;;;4.70;1.20;;;;;;;6.50;100.00;100278.06;109084;1257;59999;-64
2023/12/18 07:37:55;;;;;;;5.30;1.50;;;;;;;6.49;100.00;100273.73;109190;1257;73182;-63
2023/12/18 07:40:43;;;;;;;4.50;1.20;;;;;;;6.51;100.00;100285.43;109045;1257;67602;-64
2023/12/18 07:43:31;;;;;;;4.70;1.50;;;;;;;6.51;100.00;100288.77;108958;1257;71051;-66
2023/12/18 07:46:19;;;;;;;4.70;1.30;;;;;;;6.52;100.00;100296.84;109151;1257;60229;-64
2023/12/18 07:49:07;;;;;;;6.70;1.50;;;;;;;6.53;100.00;100293.24;109121;1257;59058;-63
2023/12/18 07:51:55;;;;;;;4.00;1.10;;;;;;;6.56;100.00;100306.28;109200;1257;73269;-66
2023/12/18 07:54:42;;;;;;;4.80;1.20;;;;;;;6.57;100.00;100314.36;109178;1257;67904;-65
2023/12/18 07:57:30;;;;;;;5.30;1.30;;;;;;;6.59;100.00;100317.37;109066;1257;72327;-64
2023/12/18 08:00:18;;;;;;;4.80;1.50;;;;;;;6.61;100.00;100306.16;109036;1257;58327;-64
2023/12/18 08:03:06;;;;;;;4.90;1.40;;;;;;;6.61;100.00;100307.75;109184;1257;60123;-66
2023/12/18 08:05:54;;;;;;;5.00;1.40;;;;;;;6.63;100.00;100309.55;109039;1257;73003;-63
2023/12/18 08:08:42;;;;;;;4.60;1.20;;;;;;;6.65;100.00;100307.55;109166;1257;65602;-62
2023/12/18 08:11:30;;;;;;;5.60;1.40;;;;;;;6.65;100.00;100304.02;109206;1257;72357;-64
2023/12/18 08:14:18;;;;;;;5.40;1.50;;;;;;;6.68;100.00;100297.87;108966;1257;59654;-66
2023/12/18 08:17:06;;;;;;;4.70;1.40;;;;;;;6.69;100.00;100294.64;109073;1260;61085;-64
2023/12/18 08:19:53;;;;;;;6.40;1.30;;;;;;;6.69;100.00;100289.48;109037;1260;71570;-64
2023/12/18 08:22:41;;;;;;;6.10;1.60;;;;;;;6.71;100.00;100294.14;109125;1257;66480;-68
2023/12/18 08:25:29;;;;;;;6.20;1.70;;;;;;;6.72;100.00;100303.42;109077;1257;72728;-66
2023/12/18 08:28:17;;;;;;;6.00;1.40;;;;;;;6.71;100.00;100298.89;109040;1257;59720;-66
2023/12/18 08:31:05;;;;;;;5.50;1.60;;;;;;;6.68;100.00;100289.36;109096;1260;61543;-64
2023/12/18 08:33:53;;;;;;;5.70;1.60;;;;;;;6.73;100.00;100300.90;108996;1257;71899;-64
2023/12/18 08:36:40;;;;;;;6.00;1.50;;;;;;;6.75;100.00;100305.58;109022;1257;68029;-67
2023/12/18 08:39:29;;;;;;;6.20;1.70;;;;;;;6.76;100.00;100306.54;109165;1256;72813;-65
2023/12/18 08:42:16;;;;;;;5.50;1.90;;;;;;;6.77;100.00;100309.28;109148;1258;60568;-65
2023/12/18 08:45:05;;;;;;;6.60;1.80;;;;;;;6.78;100.00;100318.94;108979;1257;57971;-64
2023/12/18 08:47:54;;;;;;;5.10;1.60;;;;;;;6.78;100.00;100321.27;109153;1258;72803;-64
2023/12/18 08:50:43;;;;;;;4.90;1.30;;;;;;;6.77;100.00;100322.52;109173;1255;68930;-65
2023/12/18 08:53:31;;;;;;;5.90;1.60;;;;;;;6.77;100.00;100328.37;109037;1257;72647;-63
2023/12/18 08:56:19;;;;;;;5.50;1.50;;;;;;;6.77;100.00;100329.93;109143;1257;58759;-65
2023/12/18 08:59:06;;;;;;;5.50;1.50;;;;;;;6.77;100.00;100327.45;109167;1257;60368;-66
2023/12/18 09:01:54;;;;;;;5.40;1.40;;;;;;;6.76;100.00;100321.70;109184;1257;73097;-64
2023/12/18 09:04:42;;;;;;;7.20;2.40;;;;;;;6.74;100.00;100320.60;109064;1257;67967;-64
2023/12/18 09:07:30;;;;;;;6.40;2.10;;;;;;;6.71;100.00;100314.22;109044;1257;71459;-65
2023/12/18 09:10:18;;;;;;;6.10;1.90;;;;;;;6.72;100.00;100324.77;108971;1259;59737;-66
2023/12/18 09:13:06;;;;;;;5.50;1.70;;;;;;;6.71;100.00;100336.63;109199;1257;61314;-68
2023/12/18 09:15:53;;;;;;;5.20;1.50;;;;;;;6.71;100.00;100338.75;109045;1257;71872;-65
2023/12/18 09:18:41;;;;;;;5.60;1.40;;;;;;;6.73;100.00;100334.77;109071;1257;67963;-64
2023/12/18 09:21:30;;;;;;;5.20;1.60;;;;;;;6.78;100.00;100331.45;109188;1257;71147;-64
2023/12/18 09:24:18;;;;;;;7.00;2.10;;;;;;;6.82;100.00;100334.06;108430;1257;1002663;-66
2023/12/18 09:27:06;;;;;;;6.60;2.00;;;;;;;6.84;100.00;100337.47;109055;1257;59080;-64
2023/12/18 09:29:54;;;;;;;5.30;1.70;;;;;;;6.87;100.00;100333.27;109205;1257;71863;-65
2023/12/18 09:32:41;;;;;;;5.60;1.60;;;;;;;6.86;100.00;100335.80;109153;1257;68977;-64
2023/12/18 09:35:32;;;;;;;5.30;1.40;;;;;;;6.83;100.00;100333.31;109189;1257;72632;-67
2023/12/18 09:38:19;;;;;;;6.00;1.50;;;;;;;6.81;100.00;100327.73;109198;1257;58416;-63
2023/12/18 09:41:07;;;;;;;5.90;1.60;;;;;;;6.83;100.00;100325.54;109184;1256;61769;-66
2023/12/18 09:43:56;;;;;;;5.40;1.40;;;;;;;6.83;100.00;100321.30;109129;1257;74186;-64
2023/12/18 09:46:44;;;;;;;5.10;1.50;;;;;;;6.83;100.00;100325.19;109112;1257;66879;-64
2023/12/18 09:49:32;;;;;;;6.80;1.60;;;;;;;6.86;100.00;100322.58;109031;1257;72828;-65
2023/12/18 09:52:23;;;;;;;6.70;1.70;;;;;;;6.87;100.00;100324.27;109165;1257;57428;-63
2023/12/18 09:55:11;;;;;;;5.20;1.40;;;;;;;6.85;100.00;100323.65;109086;1257;61520;-65
2023/12/18 09:58:00;;;;;;;5.10;1.50;;;;;;;6.84;100.00;100324.95;109084;1260;73102;-64
2023/12/18 10:00:48;;;;;;;5.10;1.10;;;;;;;6.86;100.00;100324.66;108926;1257;66422;-65
2023/12/18 10:03:36;;;;;;;6.30;1.80;;;;;;;6.90;100.00;100333.11;109041;1260;72758;-65
2023/12/18 10:06:24;;;;;;;5.60;1.40;;;;;;;6.88;100.00;100339.88;108995;1257;59741;-65
2023/12/18 10:09:16;;;;;;;6.10;2.00;;;;;;;6.89;100.00;100338.23;109209;1256;60289;-65
2023/12/18 10:12:05;;;;;;;6.90;2.30;;;;;;;6.88;100.00;100340.63;109089;1256;71914;-66
2023/12/18 10:14:52;;;;;;;9.90;3.70;;;;;;;6.87;100.00;100341.05;109044;1257;68452;-65
2023/12/18 10:17:42;;;;;;;7.40;2.30;;;;;;;6.88;100.00;100339.91;109181;1257;71137;-67
2023/12/18 10:20:33;;;;;;;6.40;2.10;;;;;;;6.89;100.00;100343.50;108997;1256;59914;-66
2023/12/18 10:23:20;;;;;;;7.80;2.20;;;;;;;6.92;100.00;100347.44;108946;1257;57914;-68
2023/12/18 10:26:22;;;;;;;7.10;1.90;;;;;;;6.94;100.00;100345.01;108161;1260;1002439;-65
2023/12/18 10:29:13;;;;;;;7.00;2.00;;;;;;;6.96;100.00;100342.23;108933;1260;68403;-65
2023/12/18 10:32:01;;;;;;;5.90;1.60;;;;;;;6.96;100.00;100341.93;108885;1260;72793;-64
2023/12/18 10:34:50;;;;;;;6.30;2.20;;;;;;;6.96;100.00;100347.39;108964;1259;60597;-64
2023/12/18 10:37:45;;;;;;;5.50;1.70;;;;;;;6.95;100.00;100350.77;108898;1261;59847;-65
2023/12/18 10:40:34;;;;;;;7.40;2.20;;;;;;;7.01;100.00;100347.44;108941;1260;73082;-63
2023/12/18 10:43:25;;;;;;;6.80;2.00;;;;;;;7.07;100.00;100346.89;108945;1260;67903;-65
2023/12/18 10:46:13;;;;;;;5.60;1.60;;;;;;;7.12;100.00;100351.39;108836;1260;72038;-65
2023/12/18 10:49:02;;;;;;;7.30;2.40;;;;;;;7.13;100.00;100351.30;108912;1260;59566;-64
2023/12/18 10:51:52;;;;;;;7.50;2.30;;;;;;;7.16;100.00;100351.66;108848;1260;59253;-65
2023/12/18 10:54:40;;;;;;;6.30;2.20;;;;;;;7.18;100.00;100354.23;108915;1260;74052;-65
2023/12/18 10:57:29;;;;;;;6.10;1.80;;;;;;;7.19;100.00;100358.77;109064;1257;67165;-66
2023/12/18 11:00:19;;;;;;;7.80;2.60;;;;;;;7.21;100.00;100358.80;109035;1257;72819;-66
2023/12/18 11:03:07;;;;;;;7.00;2.30;;;;;;;7.22;100.00;100360.16;109047;1257;59373;-64
2023/12/18 11:05:56;;;;;;;6.10;1.80;;;;;;;7.21;100.00;100362.37;109157;1257;61534;-65
2023/12/18 11:08:45;;;;;;;5.10;1.50;;;;;;;7.12;100.00;100348.72;109168;1257;71765;-66
2023/12/18 11:11:35;;;;;;;6.30;1.70;;;;;;;7.17;100.00;100360.81;109057;1257;67660;-64
2023/12/18 11:15:05;;;;;;;6.00;1.90;;;;;;;7.18;100.00;100361.65;109028;1257;72708;-63
2023/12/18 11:18:31;;;;;;;6.50;1.70;;;;;;;7.18;100.00;100354.39;109021;1257;59597;-64
2023/12/18 11:21:19;;;;;;;5.90;1.70;;;;;;;7.17;100.00;100352.17;109182;1256;60273;-64
2023/12/18 11:24:06;;;;;;;6.20;1.70;;;;;;;7.16;100.00;100355.20;109018;1257;74040;-65
2023/12/18 11:26:55;;;;;;;5.40;1.60;;;;;;;7.17;100.00;100349.46;109235;1256;67893;-62
2023/12/18 11:29:48;;;;;;;6.10;2.20;;;;;;;7.20;100.00;100350.24;109033;1257;71450;-64
2023/12/18 11:32:42;;;;;;;5.60;1.70;;;;;;;7.21;100.00;100349.80;109078;1256;57885;-64
2023/12/18 11:35:34;;;;;;;5.80;1.70;;;;;;;7.20;100.00;100350.40;108998;1257;61518;-65
2023/12/18 11:38:24;;;;;;;6.60;1.80;;;;;;;7.21;100.00;100353.20;108982;1256;74028;-66
2023/12/18 11:41:45;;;;;;;5.60;1.60;;;;;;;7.20;100.00;100344.06;109085;1256;70016;-65
2023/12/18 11:44:37;;;;;;;9.10;3.40;;;;;;;7.22;100.00;100342.53;109027;1256;71631;-65
2023/12/18 11:47:27;;;;;;;9.30;3.20;;;;;;;7.26;100.00;100345.45;109191;1257;59743;-64
2023/12/18 11:50:20;;;;;;;5.50;1.70;;;;;;;7.24;100.00;100332.16;109143;1256;60453;-64
2023/12/18 11:53:22;;;;;;;6.90;2.30;;;;;;;7.26;100.00;100336.80;109208;1256;74024;-65
2023/12/18 11:56:11;;;;;;;6.20;1.90;;;;;;;7.26;100.00;100335.58;109207;1256;66726;-69
2023/12/18 11:59:02;;;;;;;6.10;1.70;;;;;;;7.26;100.00;100329.71;109114;1256;70850;-65
2023/12/18 12:01:52;;;;;;;5.40;1.50;;;;;;;7.28;100.00;100335.10;109105;1257;59813;-63
2023/12/18 12:04:41;;;;;;;5.80;1.70;;;;;;;7.25;100.00;100327.88;109044;1256;59015;-65
2023/12/18 12:07:29;;;;;;;5.10;1.40;;;;;;;7.27;100.00;100334.94;109281;1256;71878;-65
2023/12/18 12:10:16;;;;;;;5.60;1.40;;;;;;;7.27;100.00;100331.63;109223;1256;66007;-67
2023/12/18 12:13:08;;;;;;;5.60;1.60;;;;;;;7.26;100.00;100334.36;109050;1257;73912;-65
2023/12/18 12:16:00;;;;;;;5.40;1.60;;;;;;;7.25;100.00;100332.29;109046;1257;58335;-65
2023/12/18 12:18:51;;;;;;;7.00;1.90;;;;;;;7.24;100.00;100330.20;109036;1256;61479;-64
2023/12/18 12:21:40;;;;;;;4.70;1.40;;;;;;;7.23;100.00;100328.14;109154;1255;72949;-64
2023/12/18 12:24:37;;;;;;;5.30;1.50;;;;;;;7.21;100.00;100327.75;109246;1257;67217;-64
2023/12/18 12:27:26;;;;;;;5.90;1.80;;;;;;;7.21;100.00;100331.83;109231;1256;72079;-66
2023/12/18 12:30:14;;;;;;;5.50;1.60;;;;;;;7.21;100.00;100341.02;109182;1257;59534;-65
2023/12/18 12:33:03;;;;;;;5.00;1.60;;;;;;;7.18;100.00;100339.38;109008;1257;61187;-64
2023/12/18 12:35:54;;;;;;;4.70;1.30;;;;;;;7.19;100.00;100336.35;109024;1256;73045;-64
2023/12/18 12:38:43;;;;;;;5.60;1.40;;;;;;;7.18;100.00;100340.97;109200;1256;66353;-65
2023/12/18 12:41:31;;;;;;;6.20;1.70;;;;;;;7.17;100.00;100331.87;108988;1257;73191;-65
2023/12/18 12:44:19;;;;;;;7.00;1.80;;;;;;;7.17;100.00;100328.85;108876;1257;59547;-63
2023/12/18 12:47:07;;;;;;;5.40;1.70;;;;;;;7.18;100.00;100339.91;109191;1256;60302;-65
2023/12/18 12:49:55;;;;;;;7.70;2.60;;;;;;;7.16;100.00;100347.05;109081;1257;73152;-63
2023/12/18 12:52:46;;;;;;;8.20;2.80;;;;;;;7.15;100.00;100338.48;109186;1256;66944;-63
2023/12/18 12:55:41;;;;;;;8.90;2.60;;;;;;;7.13;100.00;100350.48;109157;1257;73670;-64